CheckWX is a tool to help pilots better visualize weather data.  It is not intended as a substitute for an official pre-flight weather briefing.

16:16:45 UTC

KPOB METAR
Pope AAF Airport
Fayetteville, North Carolina, USA
Current

21 mins ago

KPOB 261556Z AUTO 34007KT 10SM CLR 34/16 A3008 RMK AO2 SLP186 T03440162 $
Observed
May-26 @ 15:56 UTC
Wind
  • 340° at 7 KTS
Visibility
10 SM
Flight Rules
VFR
Cloud Levels
  • Clear skies
Temperature
34°C / 93°F
Dewpoint
16°C / 61°F
Humidity
34%
Altimeter
30.08" Hg
Pressure
1018.62 hPa
Previous

1 hour ago

KPOB 261456Z AUTO 32007KT 10SM CLR 33/20 A3009 RMK AO2 SLP190 T03250204 55004 $
Observed
May-26 @ 14:56 UTC
Wind
  • 320° at 7 KTS
Visibility
10 SM
Flight Rules
VFR
Cloud Levels
  • Clear skies
Temperature
33°C / 91°F
Dewpoint
20°C / 68°F
Heat Index
35°C / 95°F
Humidity
46%
Altimeter
30.09" Hg
Pressure
1018.92 hPa
Previous

2 hours ago

KPOB 261356Z AUTO 00000KT 10SM CLR 30/22 A3010 RMK AO2 SLP193 T03000224 $
Observed
May-26 @ 13:56 UTC
Visibility
10 SM
Flight Rules
VFR
Cloud Levels
  • Clear skies
Temperature
30°C / 86°F
Dewpoint
22°C / 72°F
Heat Index
33°C / 92°F
Humidity
62%
Altimeter
30.1" Hg
Pressure
1019.32 hPa